createdAt,value
2023-01-27T00:01:34.875Z,-2.57
2023-01-27T00:04:36.657Z,-2.49
2023-01-27T00:07:38.951Z,-2.58
2023-01-27T00:10:40.947Z,-2.54
2023-01-27T00:13:44.365Z,-2.40
2023-01-27T00:16:46.273Z,-2.42
2023-01-27T00:19:48.071Z,-2.45
2023-01-27T00:22:49.834Z,-2.44
2023-01-27T00:25:51.688Z,-2.25
2023-01-27T00:28:54.879Z,-2.28
2023-01-27T00:31:56.821Z,-2.23
2023-01-27T00:34:58.618Z,-2.09
2023-01-27T00:38:00.648Z,-2.08
2023-01-27T00:41:02.860Z,-2.01
2023-01-27T00:44:06.302Z,-2.06
2023-01-27T00:47:08.075Z,-2.10
2023-01-27T00:50:10.764Z,-2.21
2023-01-27T00:53:12.783Z,-2.05
2023-01-27T00:56:14.891Z,-2.07
2023-01-27T00:59:18.074Z,-1.96
2023-01-27T01:02:19.859Z,-1.94
2023-01-27T01:05:21.685Z,-1.99
2023-01-27T01:08:23.649Z,-1.92
2023-01-27T01:11:26.119Z,-1.90
2023-01-27T01:14:29.698Z,-2.08
2023-01-27T01:17:31.537Z,-2.15
2023-01-27T01:20:36.753Z,-2.12
2023-01-27T01:23:40.329Z,-2.15
2023-01-27T01:26:42.308Z,-2.01
2023-01-27T01:29:45.703Z,-2.11
2023-01-27T01:32:47.565Z,-2.05
2023-01-27T01:35:49.360Z,-2.14
2023-01-27T01:38:55.402Z,-2.28
2023-01-27T01:41:57.312Z,-2.42
2023-01-27T01:45:40.489Z,-2.32
2023-01-27T01:48:45.481Z,-2.53
2023-01-27T01:51:52.111Z,-2.39
2023-01-27T01:54:56.843Z,-2.55
2023-01-27T01:57:58.877Z,-2.64
2023-01-27T02:01:03.954Z,-2.63
2023-01-27T02:04:11.644Z,-2.66
2023-01-27T02:07:20.035Z,-2.42
2023-01-27T02:10:22.114Z,-2.46
2023-01-27T02:13:23.998Z,-2.52
2023-01-27T02:16:27.322Z,-2.55
2023-01-27T02:19:41.415Z,-2.57
2023-01-27T02:22:49.902Z,-2.59
2023-01-27T02:25:57.668Z,-2.46
2023-01-27T02:29:02.337Z,-2.58
2023-01-27T02:32:04.277Z,-2.64
2023-01-27T02:35:11.977Z,-2.66
2023-01-27T02:38:17.435Z,-2.55
2023-01-27T02:41:25.743Z,-2.43
2023-01-27T02:44:28.022Z,-2.54
2023-01-27T02:47:30.291Z,-2.70
2023-01-27T02:50:32.186Z,-2.72
2023-01-27T02:53:34.369Z,-2.80
2023-01-27T02:56:37.838Z,-2.80
2023-01-27T02:59:39.678Z,-2.83
2023-01-27T03:02:41.495Z,-2.83
2023-01-27T03:05:44.311Z,-2.83
2023-01-27T03:08:46.404Z,-2.70
2023-01-27T03:11:49.966Z,-2.55
2023-01-27T03:14:52.618Z,-2.62
2023-01-27T03:17:54.439Z,-2.53
2023-01-27T03:21:02.296Z,-2.49
2023-01-27T03:24:04.680Z,-2.51
2023-01-27T03:27:07.919Z,-2.53
2023-01-27T03:30:10.637Z,-2.46
2023-01-27T03:33:12.607Z,-2.49
2023-01-27T03:36:14.558Z,-2.69
2023-01-27T03:39:16.438Z,-2.69
2023-01-27T03:42:19.711Z,-2.70
2023-01-27T03:45:21.626Z,-2.64
2023-01-27T03:48:23.832Z,-2.62
2023-01-27T03:51:27.227Z,-2.48
2023-01-27T03:54:29.046Z,-2.49
2023-01-27T03:57:32.532Z,-2.46
2023-01-27T04:00:34.332Z,-2.42
2023-01-27T04:03:36.294Z,-2.44
2023-01-27T04:06:40.593Z,-2.38
2023-01-27T04:09:42.425Z,-2.30
2023-01-27T04:12:48.162Z,-2.29
2023-01-27T04:15:54.993Z,-2.24
2023-01-27T04:18:57.331Z,-2.27
2023-01-27T04:22:00.758Z,-2.18
2023-01-27T04:25:02.762Z,-2.18
2023-01-27T04:28:05.983Z,-2.11
2023-01-27T04:31:07.933Z,-2.09
2023-01-27T04:34:11.050Z,-2.05
2023-01-27T04:37:12.837Z,-2.06
2023-01-27T04:40:14.979Z,-2.07
2023-01-27T04:43:18.388Z,-2.06
2023-01-27T04:46:20.421Z,-2.04
2023-01-27T04:49:22.215Z,-2.01
2023-01-27T04:52:24.265Z,-1.97
2023-01-27T04:55:26.690Z,-1.93
2023-01-27T04:58:30.128Z,-1.89
2023-01-27T05:01:32.162Z,-1.86
2023-01-27T05:04:33.927Z,-1.86
2023-01-27T05:07:35.874Z,-1.85
2023-01-27T05:10:37.881Z,-1.83
2023-01-27T05:13:41.456Z,-1.85
2023-01-27T05:16:43.457Z,-1.89
2023-01-27T05:19:45.277Z,-1.89
2023-01-27T05:22:47.165Z,-1.95
2023-01-27T05:25:49.006Z,-2.05
2023-01-27T05:28:53.076Z,-2.09
2023-01-27T05:31:55.124Z,-2.28
2023-01-27T05:34:56.933Z,-2.32
2023-01-27T05:37:58.922Z,-2.54
2023-01-27T05:41:02.617Z,-2.53
2023-01-27T05:44:06.290Z,-2.57
2023-01-27T05:47:09.033Z,-2.47
2023-01-27T05:50:12.500Z,-2.42
2023-01-27T05:53:17.642Z,-2.47
2023-01-27T05:56:20.482Z,-2.34
2023-01-27T05:59:24.385Z,-2.39
2023-01-27T06:02:27.216Z,-2.36
2023-01-27T06:05:29.301Z,-2.31
2023-01-27T06:08:35.066Z,-2.38
2023-01-27T06:11:36.955Z,-2.29
2023-01-27T06:14:40.368Z,-2.28
2023-01-27T06:17:42.243Z,-2.28
2023-01-27T06:20:45.005Z,-2.16
2023-01-27T06:23:47.371Z,-2.18
2023-01-27T06:26:49.126Z,-2.15
2023-01-27T06:29:52.292Z,-2.11
2023-01-27T06:32:55.354Z,-2.10
2023-01-27T06:36:01.155Z,-2.12
2023-01-27T06:39:03.247Z,-2.12
2023-01-27T06:42:05.191Z,-2.22
2023-01-27T06:45:09.603Z,-2.25
2023-01-27T06:48:11.831Z,-2.22
2023-01-27T06:51:14.117Z,-2.18
2023-01-27T06:54:19.583Z,-2.21
2023-01-27T06:57:21.952Z,-2.15
2023-01-27T07:00:25.384Z,-2.15
2023-01-27T07:03:27.254Z,-2.17
2023-01-27T07:06:29.137Z,-2.09
2023-01-27T07:09:37.537Z,-2.07
2023-01-27T07:12:45.422Z,-2.06
2023-01-27T07:15:54.627Z,-2.10
2023-01-27T07:18:57.252Z,-2.13
2023-01-27T07:21:59.491Z,-2.20
2023-01-27T07:25:03.119Z,-2.14
2023-01-27T07:28:05.828Z,-2.13
2023-01-27T07:31:09.501Z,-2.16
2023-01-27T07:34:12.307Z,-2.07
2023-01-27T07:37:14.634Z,-2.18
2023-01-27T07:40:17.171Z,-2.10
2023-01-27T07:43:19.398Z,-2.05
2023-01-27T07:46:26.017Z,-2.02
2023-01-27T07:49:27.924Z,-2.01
2023-01-27T07:52:33.648Z,-2.02
2023-01-27T07:55:35.570Z,-1.99
2023-01-27T07:58:38.173Z,-1.98
2023-01-27T08:01:42.394Z,-1.91
2023-01-27T08:04:52.849Z,-1.95
2023-01-27T08:07:58.629Z,-1.94
2023-01-27T08:11:01.091Z,-1.94
2023-01-27T08:14:03.234Z,-2.02
2023-01-27T08:17:06.511Z,-2.10
2023-01-27T08:20:10.169Z,-2.15
2023-01-27T08:23:12.025Z,-2.11
2023-01-27T08:26:14.665Z,-2.08
2023-01-27T08:29:18.022Z,-2.04
2023-01-27T08:32:21.540Z,-2.05
2023-01-27T08:35:23.478Z,-2.01
2023-01-27T08:38:25.341Z,-1.94
2023-01-27T08:41:27.677Z,-1.89
2023-01-27T08:44:29.583Z,-1.87
2023-01-27T08:47:32.912Z,-1.82
2023-01-27T08:50:35.758Z,-1.84
2023-01-27T08:53:39.197Z,-1.83
2023-01-27T08:56:41.413Z,-1.76
2023-01-27T08:59:44.487Z,-1.90
2023-01-27T09:02:47.895Z,-1.92
2023-01-27T09:05:49.780Z,-1.83
2023-01-27T09:08:52.284Z,-1.82
2023-01-27T09:11:54.110Z,-1.78
2023-01-27T09:14:56.116Z,-1.76
2023-01-27T09:17:59.427Z,-1.72
2023-01-27T09:21:08.709Z,-1.80
2023-01-27T09:24:10.771Z,-1.80
2023-01-27T09:27:12.835Z,-1.68
2023-01-27T09:30:16.443Z,-1.73
2023-01-27T09:33:20.143Z,-1.73
2023-01-27T09:36:22.458Z,-1.65
2023-01-27T09:39:25.952Z,-1.80
2023-01-27T09:42:42.428Z,-1.87
2023-01-27T09:46:09.110Z,-1.99
2023-01-27T09:49:25.719Z,-1.84
2023-01-27T09:52:47.854Z,-1.79
2023-01-27T09:55:57.825Z,-1.69
2023-01-27T09:59:13.297Z,-1.54
2023-01-27T10:02:33.661Z,-1.57
2023-01-27T10:05:55.563Z,-1.70
2023-01-27T10:09:12.112Z,-1.61
2023-01-27T10:12:35.270Z,-1.65
2023-01-27T10:15:55.646Z,-1.66
2023-01-27T10:19:21.236Z,-1.79
2023-01-27T10:22:34.084Z,-1.79
2023-01-27T10:25:48.930Z,-1.72
2023-01-27T10:28:56.392Z,-1.58
2023-01-27T10:32:06.926Z,-1.70
2023-01-27T10:35:16.731Z,-1.74
2023-01-27T10:38:32.851Z,-1.81
2023-01-27T10:41:43.773Z,-1.74
2023-01-27T10:45:05.585Z,-1.63
2023-01-27T10:48:27.832Z,-1.41
2023-01-27T10:51:33.853Z,-1.50
2023-01-27T10:54:42.743Z,-1.44
2023-01-27T10:57:50.757Z,-1.48
2023-01-27T11:01:19.915Z,-1.40
2023-01-27T11:04:27.712Z,-1.43
2023-01-27T11:07:32.764Z,-1.32
2023-01-27T11:10:41.507Z,-1.44
2023-01-27T11:13:43.993Z,-1.35
2023-01-27T11:16:49.652Z,-1.24
2023-01-27T11:19:58.724Z,-1.17
2023-01-27T11:23:04.030Z,-1.28
2023-01-27T11:26:20.317Z,-1.33
2023-01-27T11:29:32.199Z,-1.27
2023-01-27T11:32:48.161Z,-1.24
2023-01-27T11:35:51.356Z,-1.13
2023-01-27T11:38:54.750Z,-1.28
2023-01-27T11:41:58.113Z,-1.25
2023-01-27T11:45:01.791Z,-1.33
2023-01-27T11:48:08.502Z,-1.43
2023-01-27T11:51:15.770Z,-1.52
2023-01-27T11:54:21.822Z,-1.34
2023-01-27T11:57:26.546Z,-1.49
2023-01-27T12:00:33.850Z,-1.39
2023-01-27T12:03:48.972Z,-1.50
2023-01-27T12:06:55.198Z,-1.37
2023-01-27T12:09:57.060Z,-1.40
2023-01-27T12:13:07.355Z,-1.24
2023-01-27T12:16:09.336Z,-1.33
2023-01-27T12:19:24.259Z,-1.46
2023-01-27T12:22:31.321Z,-1.53
2023-01-27T12:25:44.816Z,-1.52
2023-01-27T12:28:53.287Z,-1.47
2023-01-27T12:32:01.198Z,-1.55
2023-01-27T12:35:04.341Z,-1.49
2023-01-27T12:38:15.186Z,-1.51
2023-01-27T12:41:25.341Z,-1.54
2023-01-27T12:44:41.338Z,-1.54
2023-01-27T12:47:56.437Z,-1.55
2023-01-27T12:51:06.730Z,-1.51
2023-01-27T12:54:17.511Z,-1.57
2023-01-27T12:57:21.388Z,-1.61
2023-01-27T13:00:26.579Z,-1.55
2023-01-27T13:03:29.596Z,-1.56
2023-01-27T13:06:39.314Z,-1.43
2023-01-27T13:09:50.530Z,-1.39
2023-01-27T13:12:54.931Z,-1.41
2023-01-27T13:16:05.418Z,-1.52
2023-01-27T13:19:17.078Z,-1.50
2023-01-27T13:22:21.696Z,-1.46
2023-01-27T13:25:28.305Z,-1.37
2023-01-27T13:28:51.340Z,-1.37
2023-01-27T13:32:01.967Z,-1.37
2023-01-27T13:35:13.574Z,-1.23
2023-01-27T13:38:23.130Z,-1.27
2023-01-27T13:41:41.320Z,-1.24
2023-01-27T13:44:48.167Z,-1.37
2023-01-27T13:47:57.604Z,-1.36
2023-01-27T13:51:05.535Z,-1.50
2023-01-27T13:54:07.506Z,-1.47
2023-01-27T13:57:25.675Z,-1.49
2023-01-27T14:00:35.404Z,-1.53
2023-01-27T14:04:04.942Z,-1.46
2023-01-27T14:07:17.856Z,-1.41
2023-01-27T14:10:25.517Z,-1.49
2023-01-27T14:13:40.197Z,-1.42
2023-01-27T14:16:58.207Z,-1.45
2023-01-27T14:20:19.042Z,-1.51
2023-01-27T14:23:34.500Z,-1.48
2023-01-27T14:26:50.562Z,-1.41
2023-01-27T14:30:00.018Z,-1.37
2023-01-27T14:33:12.264Z,-1.39
2023-01-27T14:36:20.508Z,-1.43
2023-01-27T14:39:31.306Z,-1.46
2023-01-27T14:42:42.719Z,-1.41
2023-01-27T14:45:51.004Z,-1.46
2023-01-27T14:49:08.675Z,-1.38
2023-01-27T14:52:23.856Z,-1.42
2023-01-27T14:55:37.601Z,-1.40
2023-01-27T14:58:51.105Z,-1.49
2023-01-27T15:02:01.351Z,-1.47
2023-01-27T15:05:12.488Z,-1.48
2023-01-27T15:08:24.876Z,-1.46
2023-01-27T15:11:39.861Z,-1.49
2023-01-27T15:15:03.392Z,-1.48
2023-01-27T15:18:27.875Z,-1.60
2023-01-27T15:21:55.137Z,-1.61
2023-01-27T15:25:26.144Z,-1.63
2023-01-27T15:28:31.265Z,-1.58
2023-01-27T15:31:33.677Z,-1.66
2023-01-27T15:34:35.804Z,-1.59
2023-01-27T15:37:56.198Z,-1.47
2023-01-27T15:41:16.383Z,-1.45
2023-01-27T15:44:27.240Z,-1.44
2023-01-27T15:47:31.594Z,-1.51
2023-01-27T15:50:38.412Z,-1.48
2023-01-27T15:53:48.021Z,-1.53
2023-01-27T15:56:53.836Z,-1.52
2023-01-27T16:00:02.558Z,-1.54
2023-01-27T16:03:14.950Z,-1.61
2023-01-27T16:06:21.808Z,-1.60
2023-01-27T16:09:32.475Z,-1.58
2023-01-27T16:12:41.599Z,-1.72
2023-01-27T16:15:43.966Z,-1.67
2023-01-27T16:18:51.689Z,-1.61
2023-01-27T16:21:57.755Z,-1.55
2023-01-27T16:25:11.684Z,-1.69
2023-01-27T16:28:20.370Z,-1.61
2023-01-27T16:31:26.727Z,-1.66
2023-01-27T16:34:35.204Z,-1.65
2023-01-27T16:37:44.139Z,-1.66
2023-01-27T16:40:49.191Z,-1.66
2023-01-27T16:43:58.265Z,-1.67
2023-01-27T16:47:14.962Z,-1.68
2023-01-27T16:50:40.582Z,-1.59
2023-01-27T16:53:48.463Z,-1.75
2023-01-27T16:56:52.852Z,-1.76
2023-01-27T16:59:59.199Z,-1.79
2023-01-27T17:03:08.325Z,-1.75
2023-01-27T17:06:16.039Z,-1.81
2023-01-27T17:09:23.787Z,-1.77
2023-01-27T17:12:31.526Z,-1.72
2023-01-27T17:15:38.663Z,-1.75
2023-01-27T17:18:52.301Z,-1.67
2023-01-27T17:21:59.972Z,-1.68
2023-01-27T17:29:35.528Z,-1.81
2023-01-27T17:32:42.043Z,-1.80
2023-01-27T17:35:49.907Z,-1.71
2023-01-27T17:38:55.022Z,-1.74
2023-01-27T17:41:57.439Z,-1.61
2023-01-27T17:45:21.950Z,-1.73
2023-01-27T17:48:29.685Z,-1.70
2023-01-27T17:51:37.941Z,-1.63
2023-01-27T17:54:41.538Z,-1.62
2023-01-27T17:57:45.977Z,-1.59
2023-01-27T18:00:49.186Z,-1.65
2023-01-27T18:03:56.949Z,-1.72
2023-01-27T18:06:59.636Z,-1.65
2023-01-27T18:10:01.661Z,-1.67
2023-01-27T18:13:14.165Z,-1.71
2023-01-27T18:16:17.917Z,-1.54
2023-01-27T18:19:23.190Z,-1.60
2023-01-27T18:22:26.276Z,-1.64
2023-01-27T18:25:29.874Z,-1.62
2023-01-27T18:28:35.952Z,-1.55
2023-01-27T18:31:46.188Z,-1.53
2023-01-27T18:34:55.262Z,-1.47
2023-01-27T18:37:59.595Z,-1.48
2023-01-27T18:41:11.109Z,-1.64
2023-01-27T18:44:14.939Z,-1.49
2023-01-27T18:47:26.272Z,-1.46
2023-01-27T18:50:31.664Z,-1.43
2023-01-27T18:53:35.821Z,-1.49
2023-01-27T18:56:39.007Z,-1.47
2023-01-27T18:59:42.657Z,-1.45
2023-01-27T19:02:47.528Z,-1.43
2023-01-27T19:05:53.436Z,-1.48
2023-01-27T19:08:56.105Z,-1.38
2023-01-27T19:11:59.081Z,-1.50
2023-01-27T19:15:02.266Z,-1.53
2023-01-27T19:18:15.364Z,-1.48
2023-01-27T19:21:20.774Z,-1.43
2023-01-27T19:24:24.346Z,-1.38
2023-01-27T19:27:28.096Z,-1.30
2023-01-27T19:30:31.588Z,-1.30
2023-01-27T19:33:34.806Z,-1.28
2023-01-27T19:36:43.877Z,-1.25
2023-01-27T19:39:47.547Z,-1.29
2023-01-27T19:42:54.714Z,-1.27
2023-01-27T19:45:57.406Z,-1.24
2023-01-27T19:49:00.023Z,-1.21
2023-01-27T19:52:05.013Z,-1.21
2023-01-27T19:55:13.109Z,-1.19
2023-01-27T19:58:23.609Z,-1.18
2023-01-27T20:01:26.943Z,-1.15
2023-01-27T20:04:29.694Z,-1.18
2023-01-27T20:07:33.969Z,-1.13
2023-01-27T20:10:36.760Z,-1.15
2023-01-27T20:13:39.824Z,-1.13
2023-01-27T20:16:43.796Z,-1.12
2023-01-27T20:19:47.412Z,-1.08
2023-01-27T20:22:51.985Z,-1.13
2023-01-27T20:29:15.545Z,-1.08
2023-01-27T20:32:17.788Z,-1.12
2023-01-27T20:35:22.997Z,-1.09
2023-01-27T20:38:29.263Z,-1.13
2023-01-27T20:41:32.192Z,-1.12
2023-01-27T20:44:38.613Z,-1.14
2023-01-27T20:47:41.227Z,-1.14
2023-01-27T20:50:44.511Z,-1.13
2023-01-27T20:53:49.333Z,-1.13
2023-01-27T20:56:52.417Z,-1.16
2023-01-27T20:59:58.642Z,-1.12
2023-01-27T21:03:01.555Z,-1.14
2023-01-27T21:06:06.343Z,-1.14
2023-01-27T21:09:11.234Z,-1.13
2023-01-27T21:12:13.660Z,-1.11
2023-01-27T21:15:16.609Z,-1.12
2023-01-27T21:18:19.264Z,-1.14
2023-01-27T21:21:23.881Z,-1.14
2023-01-27T21:24:31.607Z,-1.16
2023-01-27T21:27:35.896Z,-1.16
2023-01-27T21:30:38.253Z,-1.20
2023-01-27T21:33:41.253Z,-1.19
2023-01-27T21:36:43.416Z,-1.17
2023-01-27T21:39:47.358Z,-1.14
2023-01-27T21:42:49.602Z,-1.22
2023-01-27T21:45:57.200Z,-1.33
2023-01-27T21:48:59.459Z,-1.22
2023-01-27T21:52:01.709Z,-1.26
2023-01-27T21:55:07.593Z,-1.40
2023-01-27T21:58:09.958Z,-1.47
2023-01-27T22:01:12.485Z,-1.37
2023-01-27T22:04:15.514Z,-1.45
2023-01-27T22:07:19.321Z,-1.46
2023-01-27T22:10:27.650Z,-1.43
2023-01-27T22:13:29.538Z,-1.42
2023-01-27T22:16:31.602Z,-1.37
2023-01-27T22:19:33.616Z,-1.43
2023-01-27T22:22:35.471Z,-1.41
2023-01-27T22:25:38.878Z,-1.42
2023-01-27T22:28:40.829Z,-1.41
2023-01-27T22:31:43.127Z,-1.42
2023-01-27T22:34:46.339Z,-1.48
2023-01-27T22:37:48.937Z,-1.46
2023-01-27T22:40:56.797Z,-1.58
2023-01-27T22:43:58.619Z,-1.86
2023-01-27T22:47:00.958Z,-1.95
2023-01-27T22:50:03.399Z,-2.04
2023-01-27T22:53:05.594Z,-2.01
2023-01-27T22:56:09.612Z,-2.11
2023-01-27T22:59:12.927Z,-2.07
2023-01-27T23:02:15.271Z,-2.04
2023-01-27T23:05:17.874Z,-1.97
2023-01-27T23:08:20.152Z,-1.91
2023-01-27T23:11:24.225Z,-1.86
2023-01-27T23:14:26.248Z,-1.79
2023-01-27T23:17:28.060Z,-2.05
2023-01-27T23:20:30.088Z,-1.94
2023-01-27T23:23:31.990Z,-1.82
2023-01-27T23:26:35.556Z,-1.79
2023-01-27T23:29:37.397Z,-1.70
2023-01-27T23:32:39.504Z,-1.75
2023-01-27T23:35:42.111Z,-1.81
2023-01-27T23:38:44.171Z,-1.78
2023-01-27T23:41:47.621Z,-1.76
2023-01-27T23:44:49.892Z,-1.79
2023-01-27T23:47:51.753Z,-1.76
2023-01-27T23:50:55.075Z,-1.76
2023-01-27T23:53:56.868Z,-1.83
2023-01-27T23:57:00.596Z,-2.00
